Time;durP1;ratioP1;P1;durP2;ratioP2;P2;SDS_P1;SDS_P2;PMS_P1;PMS_P2;Temp;Humidity;BMP_temperature;BMP_pressure;BME280_temperature;BME280_humidity;BME280_pressure;Samples;Min_cycle;Max_cycle;Signal;HPM_P1;HPM_P2
2021/12/04 00:00:42;;;;;;;2.22;1.70;;;;;;;3.01;100.00;99840.72;6247816;28;20049;-79
2021/12/04 00:03:43;;;;;;;3.17;2.08;;;;;;;3.03;100.00;99845.84;6247582;28;20050;-80
2021/12/04 00:06:46;;;;;;;2.50;1.73;;;;;;;3.00;100.00;99839.03;6248065;28;20056;-79
2021/12/04 00:09:50;;;;;;;3.90;2.47;;;;;;;2.98;100.00;99842.56;6247343;28;20412;-79
2021/12/04 00:12:52;;;;;;;3.88;2.47;;;;;;;2.96;100.00;99842.63;6255181;28;20048;-79
2021/12/04 00:15:53;;;;;;;5.63;1.83;;;;;;;2.96;100.00;99837.44;6257018;28;20484;-79
2021/12/04 00:18:54;;;;;;;3.78;2.40;;;;;;;2.97;100.00;99838.28;6261617;28;20052;-79
2021/12/04 00:21:58;;;;;;;4.93;2.63;;;;;;;2.97;100.00;99820.13;6257176;28;20404;-79
2021/12/04 00:24:59;;;;;;;5.03;2.70;;;;;;;2.96;100.00;99823.63;6258959;28;20055;-79
2021/12/04 00:28:01;;;;;;;3.63;2.15;;;;;;;2.91;100.00;99810.81;6268857;28;20041;-79
2021/12/04 00:31:07;;;;;;;5.47;2.17;;;;;;;2.86;100.00;99804.97;6273493;28;20052;-78
2021/12/04 00:34:08;;;;;;;2.58;1.80;;;;;;;2.84;100.00;99803.31;6275014;28;20047;-79
2021/12/04 00:50:26;;;;;;;4.93;2.47;;;;;;;2.75;100.00;99796.72;6234101;28;20041;-79
2021/12/04 00:53:28;;;;;;;3.42;2.30;;;;;;;2.75;100.00;99796.72;6251971;28;20057;-79
2021/12/04 00:56:30;;;;;;;4.00;2.20;;;;;;;2.79;100.00;99801.72;6259276;28;20515;-79
2021/12/04 00:59:31;;;;;;;4.25;2.35;;;;;;;2.81;100.00;99796.47;6276325;28;20068;-80
2021/12/04 01:02:33;;;;;;;4.10;2.42;;;;;;;2.82;100.00;99797.31;6273603;28;20045;-79
2021/12/04 01:05:34;;;;;;;1.90;1.30;;;;;;;2.83;100.00;99788.66;6276194;28;20067;-79
2021/12/04 01:08:37;;;;;;;2.55;1.85;;;;;;;2.83;100.00;99788.66;6276114;28;20064;-80
2021/12/04 01:11:39;;;;;;;2.50;1.98;;;;;;;2.82;100.00;99793.00;6276317;28;20051;-79
2021/12/04 01:14:41;;;;;;;3.83;2.00;;;;;;;2.83;100.00;99783.47;6276445;28;20496;-79
2021/12/04 01:17:42;;;;;;;4.50;2.20;;;;;;;2.86;100.00;99783.31;6276293;28;20496;-79
2021/12/04 01:20:43;;;;;;;2.38;1.55;;;;;;;2.85;100.00;99777.28;6275969;28;20045;-79
2021/12/04 01:23:46;;;;;;;2.35;1.40;;;;;;;2.84;100.00;99777.38;6275956;28;20049;-79
2021/12/04 01:26:49;;;;;;;2.83;2.15;;;;;;;2.84;100.00;99774.78;6275819;28;20051;-79
2021/12/04 01:29:51;;;;;;;2.40;1.80;;;;;;;2.87;100.00;99778.09;6275557;28;20049;-79
2021/12/04 01:32:53;;;;;;;4.10;2.13;;;;;;;2.88;100.00;99776.34;6273854;28;20051;-79
2021/12/04 01:35:54;;;;;;;3.30;2.42;;;;;;;2.88;100.00;99776.34;6275715;28;20052;-79
2021/12/04 01:38:57;;;;;;;3.20;2.30;;;;;;;2.86;100.00;99780.72;6275460;28;20045;-79
2021/12/04 01:41:59;;;;;;;3.05;1.60;;;;;;;2.87;100.00;99778.09;6274946;28;20049;-79
2021/12/04 01:45:00;;;;;;;2.85;1.77;;;;;;;2.87;100.00;99772.91;6275255;28;20045;-79
2021/12/04 01:48:02;;;;;;;3.10;1.60;;;;;;;2.86;100.00;99773.81;6275562;28;20067;-79
2021/12/04 01:51:04;;;;;;;1.67;1.58;;;;;;;2.85;100.00;99763.47;6275208;28;20049;-79
2021/12/04 01:54:07;;;;;;;1.83;1.55;;;;;;;2.83;100.00;99758.34;6275480;28;20515;-79
2021/12/04 01:57:08;;;;;;;3.67;1.92;;;;;;;2.85;100.00;99748.75;6275240;28;20048;-79
2021/12/04 02:00:11;;;;;;;2.00;1.63;;;;;;;2.84;100.00;99756.59;6274810;28;20092;-79
2021/12/04 02:03:14;;;;;;;2.78;1.83;;;;;;;2.87;100.00;99759.09;6274144;28;20053;-79
2021/12/04 02:06:15;;;;;;;2.47;1.50;;;;;;;2.88;100.00;99759.03;6274945;28;20063;-79
2021/12/04 02:09:18;;;;;;;2.70;2.00;;;;;;;2.85;100.00;99761.72;6275063;28;20052;-79
2021/12/04 02:12:19;;;;;;;2.05;1.58;;;;;;;2.85;100.00;99758.28;6274472;28;20649;-79
2021/12/04 02:15:21;;;;;;;2.17;1.42;;;;;;;2.84;100.00;99751.41;6274874;28;20055;-79
2021/12/04 02:18:23;;;;;;;1.85;1.48;;;;;;;2.85;100.00;99750.50;6274864;28;20518;-79
2021/12/04 02:21:26;;;;;;;2.55;1.55;;;;;;;2.84;100.00;99754.84;6274639;28;20041;-79
2021/12/04 02:24:28;;;;;;;2.10;1.48;;;;;;;2.85;100.00;99756.53;6274909;28;20052;-79
2021/12/04 02:27:29;;;;;;;2.53;1.73;;;;;;;2.86;100.00;99745.28;6274334;28;20045;-79
2021/12/04 02:30:34;;;;;;;2.30;1.83;;;;;;;2.89;100.00;99734.75;6274014;28;20056;-79
2021/12/04 02:33:35;;;;;;;1.70;1.38;;;;;;;2.93;100.00;99730.31;6271159;28;20132;-79
2021/12/04 02:36:38;;;;;;;4.80;2.30;;;;;;;2.91;100.00;99729.53;6264141;28;20409;-79
2021/12/04 02:39:44;;;;;;;2.42;1.63;;;;;;;2.91;100.00;99729.53;6271458;28;20056;-79
2021/12/04 02:42:45;;;;;;;2.58;1.25;;;;;;;2.92;100.00;99731.22;6249492;28;20042;-79
2021/12/04 02:45:47;;;;;;;10.77;1.77;;;;;;;2.90;100.00;99726.06;6249201;28;20052;-79
2021/12/04 02:48:48;;;;;;;2.75;1.52;;;;;;;2.90;100.00;99728.66;6271208;28;20514;-79
2021/12/04 02:51:51;;;;;;;3.17;1.60;;;;;;;2.88;100.00;99717.50;6273721;28;20045;-79
2021/12/04 02:54:53;;;;;;;2.45;1.33;;;;;;;2.89;100.00;99719.19;6272643;28;20397;-79
2021/12/04 02:57:54;;;;;;;3.65;1.90;;;;;;;2.88;100.00;99719.25;6273598;28;20051;-79
2021/12/04 03:00:56;;;;;;;3.85;1.70;;;;;;;2.87;100.00;99710.63;6272766;28;20041;-78
2021/12/04 03:04:06;;;;;;;2.90;1.85;;;;;;;2.86;100.00;99706.38;6267330;28;20045;-77
2021/12/04 03:07:08;;;;;;;1.40;0.95;;;;;;;2.89;100.00;99695.84;6267379;28;20147;-78
2021/12/04 03:10:10;;;;;;;2.42;1.52;;;;;;;2.92;100.00;99697.50;6265761;28;20049;-78
2021/12/04 03:13:11;;;;;;;2.30;1.60;;;;;;;2.92;100.00;99687.09;6250327;28;20042;-77
2021/12/04 03:16:12;;;;;;;2.70;1.60;;;;;;;2.91;100.00;99683.69;6249316;28;20056;-79
2021/12/04 03:19:17;;;;;;;2.90;1.63;;;;;;;2.95;100.00;99681.78;6248562;28;20072;-79
2021/12/04 03:22:22;;;;;;;4.18;1.85;;;;;;;2.93;100.00;99681.84;6254266;28;20041;-78
2021/12/04 03:25:23;;;;;;;1.73;1.48;;;;;;;2.93;100.00;99683.59;6265523;28;20059;-79
2021/12/04 03:28:26;;;;;;;2.15;1.35;;;;;;;2.90;100.00;99687.16;6256658;28;20049;-77
2021/12/04 03:31:45;;;;;;;2.38;1.65;;;;;;;2.92;100.00;99687.09;6248318;28;20064;-78
2021/12/04 03:41:33;;;;;;;2.88;2.10;;;;;;;2.93;100.00;99668.88;6273307;28;20049;-78
2021/12/04 03:44:35;;;;;;;2.20;1.27;;;;;;;2.92;100.00;99674.97;6272753;28;20105;-77
2021/12/04 03:47:39;;;;;;;2.97;1.58;;;;;;;2.91;100.00;99675.03;6273118;28;20527;-78
2021/12/04 03:50:41;;;;;;;2.35;1.77;;;;;;;2.91;100.00;99675.03;6272870;28;20106;-79
2021/12/04 03:53:44;;;;;;;2.40;1.58;;;;;;;2.91;100.00;99675.03;6272960;28;20055;-79
2021/12/04 03:56:45;;;;;;;2.30;1.73;;;;;;;2.92;100.00;99669.78;6272848;28;20726;-78
2021/12/04 03:59:48;;;;;;;2.55;1.85;;;;;;;2.92;100.00;99658.56;6272682;28;20416;-78
2021/12/04 04:02:50;;;;;;;3.50;1.70;;;;;;;2.92;100.00;99664.59;6272700;28;20049;-78
2021/12/04 04:05:51;;;;;;;1.92;1.40;;;;;;;2.95;100.00;99663.63;6255845;28;20564;-78
2021/12/04 04:08:54;;;;;;;3.08;1.58;;;;;;;2.95;100.00;99658.44;6248028;28;20045;-78
2021/12/04 04:11:55;;;;;;;2.60;2.00;;;;;;;2.93;100.00;99640.34;6247687;28;20052;-78
2021/12/04 04:14:57;;;;;;;2.47;1.65;;;;;;;2.93;100.00;99640.34;6270520;28;20049;-78
2021/12/04 04:17:58;;;;;;;4.18;2.08;;;;;;;2.90;100.00;99639.59;6272679;28;20059;-78
2021/12/04 04:21:00;;;;;;;5.32;1.77;;;;;;;2.91;100.00;99633.53;6270899;28;20072;-78
2021/12/04 04:24:03;;;;;;;2.13;1.35;;;;;;;2.93;100.00;99634.31;6272275;28;20049;-78
2021/12/04 04:27:05;;;;;;;2.58;1.65;;;;;;;2.92;100.00;99641.25;6272881;28;20052;-78
2021/12/04 04:30:11;;;;;;;1.75;1.38;;;;;;;2.92;100.00;99633.47;6272459;28;20067;-78
2021/12/04 04:33:14;;;;;;;2.42;1.70;;;;;;;2.93;100.00;99627.34;6272060;28;20056;-78
2021/12/04 04:36:31;;;;;;;3.25;1.45;;;;;;;2.91;100.00;99620.56;6271964;28;20183;-77
2021/12/04 04:40:07;;;;;;;2.67;1.40;;;;;;;2.91;100.00;99623.16;6265759;28;20053;-79
2021/12/04 05:13:17;;;;;;;2.75;2.15;;;;;;;2.82;100.00;99634.75;6247005;28;20053;-79
2021/12/04 05:16:21;;;;;;;4.78;2.83;;;;;;;2.81;100.00;99640.81;6247617;28;20428;-78
2021/12/04 05:19:28;;;;;;;6.45;2.53;;;;;;;2.81;100.00;99635.63;6272738;28;20180;-78
2021/12/04 05:22:30;;;;;;;2.60;1.85;;;;;;;2.79;100.00;99629.66;6251325;28;20046;-78
2021/12/04 05:25:33;;;;;;;2.58;2.00;;;;;;;2.81;100.00;99622.66;6254271;28;20056;-78
2021/12/04 05:28:36;;;;;;;4.38;2.40;;;;;;;2.86;100.00;99628.53;6254511;28;20056;-78
2021/12/04 05:31:37;;;;;;;4.10;2.35;;;;;;;2.86;100.00;99627.66;6251219;28;20045;-78
2021/12/04 05:34:39;;;;;;;5.00;2.75;;;;;;;2.82;100.00;99636.47;6251341;28;20050;-78
2021/12/04 05:37:40;;;;;;;5.40;2.58;;;;;;;2.82;100.00;99629.56;6264099;28;20052;-78
2021/12/04 05:40:41;;;;;;;4.50;1.88;;;;;;;2.82;100.00;99634.75;6269497;28;20071;-77
2021/12/04 05:43:44;;;;;;;4.05;2.53;;;;;;;2.80;100.00;99629.59;6262150;28;20040;-78
2021/12/04 05:46:53;;;;;;;3.90;2.30;;;;;;;2.84;100.00;99619.09;6263391;28;20477;-77
2021/12/04 05:49:59;;;;;;;3.37;2.07;;;;;;;2.80;100.00;99624.41;6260398;28;20056;-78
2021/12/04 05:53:14;;;;;;;4.88;2.33;;;;;;;2.80;100.00;99623.56;6262859;28;20041;-79
2021/12/04 05:56:16;;;;;;;2.42;1.63;;;;;;;2.82;100.00;99634.75;6263297;28;20057;-77
2021/12/04 05:59:18;;;;;;;3.80;1.90;;;;;;;2.84;100.00;99637.25;6260384;28;20044;-78
2021/12/04 06:02:21;;;;;;;4.22;1.92;;;;;;;2.83;100.00;99643.38;6260530;28;20052;-78
2021/12/04 06:05:22;;;;;;;3.15;2.40;;;;;;;2.84;100.00;99635.50;6261971;28;20057;-78
2021/12/04 06:08:23;;;;;;;2.80;1.95;;;;;;;2.80;100.00;99639.97;6261372;28;20408;-78
2021/12/04 06:11:25;;;;;;;7.55;2.15;;;;;;;2.78;100.00;99636.59;6266936;28;20052;-78
2021/12/04 06:14:27;;;;;;;4.03;2.17;;;;;;;2.76;100.00;99627.19;6270654;28;20052;-77
2021/12/04 06:17:29;;;;;;;3.42;2.15;;;;;;;2.72;100.00;99618.66;6262140;28;20511;-79
2021/12/04 06:23:50;;;;;;;4.22;1.88;;;;;;;2.68;100.00;99619.72;6258848;28;20050;-78
2021/12/04 06:26:52;;;;;;;3.60;2.20;;;;;;;2.69;100.00;99617.97;6260841;28;20045;-79
2021/12/04 06:29:54;;;;;;;3.40;2.08;;;;;;;2.70;100.00;99623.09;6270442;28;20041;-77
2021/12/04 06:32:56;;;;;;;3.75;2.08;;;;;;;2.69;100.00;99623.16;6265415;28;20048;-78
2021/12/04 06:35:57;;;;;;;5.80;2.45;;;;;;;2.71;100.00;99619.56;6273412;28;20048;-78
2021/12/04 06:38:59;;;;;;;2.33;1.75;;;;;;;2.75;100.00;99617.72;6273256;28;20045;-79
2021/12/04 06:42:00;;;;;;;5.75;2.97;;;;;;;2.71;100.00;99624.75;6262046;28;20045;-78
2021/12/04 06:45:03;;;;;;;2.28;1.88;;;;;;;2.69;100.00;99621.41;6260855;28;20049;-78
2021/12/04 06:48:08;;;;;;;3.30;2.10;;;;;;;2.71;100.00;99626.50;6248732;28;20049;-78
2021/12/04 06:51:23;;;;;;;3.42;2.17;;;;;;;2.72;100.00;99620.41;6249957;28;20049;-78
2021/12/04 06:54:28;;;;;;;3.22;1.98;;;;;;;2.70;100.00;99617.06;6249400;28;20511;-79
2021/12/04 06:57:32;;;;;;;4.88;2.17;;;;;;;2.72;100.00;99628.19;6269972;28;20146;-78
2021/12/04 07:00:35;;;;;;;3.75;2.10;;;;;;;2.73;100.00;99622.97;6249285;28;20139;-77
2021/12/04 07:03:37;;;;;;;6.85;2.38;;;;;;;2.73;100.00;99629.91;6249004;28;20048;-78
2021/12/04 07:06:39;;;;;;;3.03;2.00;;;;;;;2.75;100.00;99625.50;6248210;28;20056;-78
2021/12/04 07:09:41;;;;;;;2.88;2.03;;;;;;;2.74;100.00;99623.81;6248986;28;20045;-77
2021/12/04 07:12:43;;;;;;;4.25;2.00;;;;;;;2.74;100.00;99618.63;6248393;28;20049;-77
2021/12/04 07:15:46;;;;;;;8.18;2.83;;;;;;;2.74;100.00;99614.28;6248308;28;20443;-77
2021/12/04 07:18:48;;;;;;;6.20;2.33;;;;;;;2.75;100.00;99617.72;6253484;28;20053;-79
2021/12/04 07:21:49;;;;;;;4.00;2.17;;;;;;;2.75;100.00;99612.53;6268315;28;20050;-78
2021/12/04 07:24:51;;;;;;;5.32;2.75;;;;;;;2.76;100.00;99615.03;6259146;28;20045;-78
2021/12/04 07:27:52;;;;;;;4.30;2.75;;;;;;;2.76;100.00;99612.44;6260408;28;20057;-78
2021/12/04 07:30:55;;;;;;;7.03;3.20;;;;;;;2.80;100.00;99616.63;6258449;28;20041;-78
2021/12/04 07:33:56;;;;;;;4.93;2.60;;;;;;;2.82;100.00;99621.75;6259937;28;20038;-78
2021/12/04 07:36:57;;;;;;;4.38;2.22;;;;;;;2.83;100.00;99620.00;6258510;28;20049;-78
2021/12/04 07:39:59;;;;;;;6.10;2.78;;;;;;;2.83;100.00;99614.81;6260805;28;20395;-78
2021/12/04 07:43:00;;;;;;;5.25;3.13;;;;;;;2.83;100.00;99617.41;6261214;28;20041;-78
2021/12/04 07:46:03;;;;;;;7.20;3.05;;;;;;;2.83;100.00;99618.25;6260528;28;20104;-78
2021/12/04 07:49:05;;;;;;;4.70;2.10;;;;;;;2.82;100.00;99610.50;6257643;28;20049;-78
2021/12/04 07:52:07;;;;;;;3.70;2.20;;;;;;;2.84;100.00;99613.91;6271906;28;20519;-78
2021/12/04 07:55:10;;;;;;;5.22;2.65;;;;;;;2.86;100.00;99618.16;6272506;28;20049;-78
2021/12/04 07:58:11;;;;;;;5.30;2.85;;;;;;;2.87;100.00;99613.81;6272088;28;20428;-78
2021/12/04 08:01:14;;;;;;;4.30;2.47;;;;;;;2.90;100.00;99617.09;6272217;28;20052;-78
2021/12/04 08:04:16;;;;;;;3.78;2.35;;;;;;;2.87;100.00;99606.84;6269761;28;20053;-78
2021/12/04 08:07:17;;;;;;;5.13;2.63;;;;;;;2.89;100.00;99610.22;6248030;28;20049;-79
2021/12/04 08:10:20;;;;;;;4.65;2.47;;;;;;;2.90;100.00;99619.69;6259498;28;20500;-78
2021/12/04 08:13:22;;;;;;;3.25;2.00;;;;;;;2.92;100.00;99614.47;6272471;28;20049;-77
2021/12/04 08:16:25;;;;;;;5.07;2.63;;;;;;;2.92;100.00;99615.28;6272677;28;20060;-78
2021/12/04 08:19:26;;;;;;;5.05;2.05;;;;;;;2.93;100.00;99614.38;6272173;28;20138;-76
2021/12/04 08:22:28;;;;;;;4.65;2.60;;;;;;;2.95;100.00;99603.94;6272997;28;20063;-78
2021/12/04 08:25:31;;;;;;;3.63;2.13;;;;;;;2.95;100.00;99611.72;6272461;28;20053;-78
2021/12/04 08:28:32;;;;;;;7.45;2.60;;;;;;;2.95;100.00;99609.13;6272717;28;20053;-78
2021/12/04 08:31:36;;;;;;;3.35;1.92;;;;;;;2.93;100.00;99609.19;6272489;28;20056;-78
2021/12/04 08:34:38;;;;;;;3.45;2.22;;;;;;;2.90;100.00;99603.28;6272024;28;20049;-79
2021/12/04 08:37:40;;;;;;;5.20;2.30;;;;;;;2.86;100.00;99602.59;6268796;28;20072;-78
2021/12/04 08:40:41;;;;;;;3.58;2.33;;;;;;;2.84;100.00;99606.13;6268887;28;20048;-78
2021/12/04 08:43:43;;;;;;;4.97;2.53;;;;;;;2.84;100.00;99611.31;6272427;28;20057;-78
2021/12/04 08:46:46;;;;;;;4.90;2.65;;;;;;;2.84;100.00;99616.50;6272173;28;20056;-78
2021/12/04 08:49:47;;;;;;;6.18;2.17;;;;;;;2.90;100.00;99617.09;6272488;28;20052;-78
2021/12/04 08:52:49;;;;;;;5.72;3.00;;;;;;;2.89;100.00;99610.22;6275385;28;20484;-78
2021/12/04 08:55:51;;;;;;;6.40;2.80;;;;;;;2.91;100.00;99605.00;6277603;28;20048;-77
2021/12/04 08:58:52;;;;;;;5.93;2.72;;;;;;;2.96;100.00;99600.47;6274917;28;20045;-78
2021/12/04 09:01:55;;;;;;;5.65;3.53;;;;;;;2.97;100.00;99608.16;6276729;28;20045;-79
2021/12/04 09:04:58;;;;;;;5.75;2.78;;;;;;;2.95;100.00;99610.00;6262809;28;20056;-79
2021/12/04 09:07:59;;;;;;;5.07;2.83;;;;;;;2.98;100.00;99612.44;6261193;28;20056;-79
2021/12/04 09:11:05;;;;;;;5.97;2.92;;;;;;;2.98;100.00;99604.66;6269703;28;20048;-79
2021/12/04 09:14:07;;;;;;;3.28;2.30;;;;;;;3.02;100.00;99615.78;6274500;28;20044;-79
2021/12/04 09:17:13;;;;;;;6.30;3.22;;;;;;;3.08;100.00;99615.50;6276491;28;20060;-78
2021/12/04 09:20:16;;;;;;;4.97;2.50;;;;;;;3.13;100.00;99615.31;6211716;28;20054;-78
2021/12/04 09:23:19;;;;;;;4.75;3.05;;;;;;;3.13;100.00;99610.97;6203380;28;20124;-77
2021/12/04 09:26:36;;;;;;;5.55;3.35;;;;;;;3.13;100.00;99620.50;6223319;28;20069;-77
2021/12/04 09:29:55;;;;;;;6.32;3.13;;;;;;;3.14;100.00;99609.25;6220966;28;20054;-80
2021/12/04 09:33:28;;;;;;;5.13;3.00;;;;;;;3.16;100.00;99608.25;6226303;28;20046;-80
2021/12/04 10:03:19;;;;;;;8.95;3.13;;;;;;;3.30;100.00;99581.72;6201484;28;20062;-80
2021/12/04 10:13:40;;;;;;;;;;;;;;;3.29;100.00;99551.47;6226151;28;20513;-80
2021/12/04 10:20:30;;;;;;;6.63;3.17;;;;;;;3.30;100.00;99553.16;6174402;28;20074;-80
2021/12/04 10:23:54;;;;;;;5.10;2.70;;;;;;;3.31;100.00;99547.06;6174171;28;20135;-78
2021/12/04 10:33:53;;;;;;;5.53;2.90;;;;;;;3.49;100.00;99538.47;6225224;28;20054;-80
2021/12/04 10:37:03;;;;;;;7.15;3.40;;;;;;;3.54;100.00;99541.72;6225946;28;20058;-81
2021/12/04 10:40:09;;;;;;;4.60;2.97;;;;;;;3.55;100.00;99535.63;6225144;28;20050;-81
2021/12/04 10:43:14;;;;;;;6.18;3.22;;;;;;;3.61;100.00;99536.25;6210826;28;20049;-80
2021/12/04 10:46:18;;;;;;;8.18;4.28;;;;;;;3.58;100.00;99529.41;6225263;28;20053;-80
2021/12/04 10:49:39;;;;;;;5.20;3.25;;;;;;;3.54;100.00;99522.69;6225089;28;20054;-79
2021/12/04 10:52:51;;;;;;;7.75;4.40;;;;;;;3.58;100.00;99510.41;6224698;28;20386;-81
2021/12/04 10:56:05;;;;;;;6.35;3.42;;;;;;;3.57;100.00;99501.78;6225524;28;20053;-80
2021/12/04 10:59:27;;;;;;;6.18;3.33;;;;;;;3.59;100.00;99494.78;6225011;28;20413;-80
2021/12/04 11:02:36;;;;;;;4.70;2.85;;;;;;;3.67;100.00;99481.41;6224671;28;20140;-81
2021/12/04 11:06:04;;;;;;;5.00;3.42;;;;;;;3.68;100.00;99480.50;6224987;28;20050;-81
2021/12/04 11:19:28;;;;;;;4.63;3.10;;;;;;;3.84;100.00;99454.66;6224348;28;20049;-81
2021/12/04 11:22:39;;;;;;;4.47;2.80;;;;;;;3.84;100.00;99450.31;6200571;28;20148;-81
2021/12/04 11:26:01;;;;;;;6.88;3.65;;;;;;;3.84;100.00;99455.50;6200409;28;20050;-81
2021/12/04 11:39:24;;;;;;;5.45;2.97;;;;;;;3.90;100.00;99436.19;6199741;28;20050;-80
2021/12/04 11:42:35;;;;;;;5.78;3.00;;;;;;;3.94;100.00;99430.75;6221580;28;20505;-79
2021/12/04 11:45:45;;;;;;;5.85;2.90;;;;;;;3.97;100.00;99433.22;6212792;28;20097;-78
2021/12/04 11:48:47;;;;;;;3.97;2.50;;;;;;;4.00;100.00;99427.91;6213777;28;20201;-81
2021/12/04 11:51:57;;;;;;;6.15;2.80;;;;;;;4.07;100.00;99426.66;6213844;28;20054;-79
2021/12/04 11:55:00;;;;;;;4.95;2.47;;;;;;;4.18;100.00;99422.69;6221615;28;20049;-78
2021/12/04 11:58:03;;;;;;;4.85;2.97;;;;;;;4.19;100.00;99425.25;6213573;28;20041;-80
2021/12/04 12:01:09;;;;;;;3.35;2.45;;;;;;;4.24;100.00;99417.22;6211550;28;20046;-79
2021/12/04 12:04:12;;;;;;;4.30;2.08;;;;;;;4.28;100.00;99411.81;6216064;28;20042;-79
2021/12/04 12:07:16;;;;;;;3.55;2.03;;;;;;;4.35;100.00;99419.28;6223480;28;20057;-79
2021/12/04 12:10:18;;;;;;;5.43;2.58;;;;;;;4.30;100.00;99409.94;6221279;28;20058;-79
2021/12/04 12:13:26;;;;;;;4.57;2.28;;;;;;;4.31;100.00;99406.47;6223103;28;20050;-79
2021/12/04 12:16:35;;;;;;;3.13;1.80;;;;;;;4.29;100.00;99408.28;6223328;28;20050;-79
2021/12/04 12:19:42;;;;;;;3.58;2.40;;;;;;;4.36;100.00;99402.75;6223416;28;20092;-79
2021/12/04 12:22:48;;;;;;;3.13;2.03;;;;;;;4.38;100.00;99395.75;6223498;28;20436;-79
2021/12/04 12:26:01;;;;;;;4.82;2.47;;;;;;;4.51;100.00;99386.41;6224709;28;20045;-79
2021/12/04 12:36:07;;;;;;;2.20;1.50;;;;;;;4.58;100.00;99367.78;6226589;28;20180;-79
2021/12/04 12:39:15;;;;;;;2.50;1.50;;;;;;;4.62;100.00;99372.84;6227722;28;20052;-79
2021/12/04 12:42:28;;;;;;;2.50;1.90;;;;;;;4.73;100.00;99357.53;6226547;28;20196;-79
2021/12/04 12:45:34;;;;;;;1.73;1.35;;;;;;;4.68;100.00;99346.50;6227124;28;20046;-79
2021/12/04 12:48:46;;;;;;;1.60;1.35;;;;;;;4.57;100.00;99345.31;6227669;28;20049;-80
2021/12/04 12:51:54;;;;;;;2.67;1.27;;;;;;;4.51;100.00;99339.59;6227152;28;20432;-80
2021/12/04 12:54:59;;;;;;;2.57;1.87;;;;;;;4.41;100.00;99347.03;6227309;28;20406;-80
2021/12/04 12:58:12;;;;;;;2.35;1.33;;;;;;;4.33;100.00;99355.19;6227418;28;20058;-79
2021/12/04 13:11:42;;;;;;;1.90;1.20;;;;;;;4.12;100.00;99337.22;6206128;28;20129;-79
2021/12/04 13:14:49;;;;;;;2.28;1.65;;;;;;;4.07;100.00;99340.03;6210209;28;20218;-78
2021/12/04 13:17:52;;;;;;;2.25;1.75;;;;;;;4.03;100.00;99334.16;6225443;28;20053;-79
2021/12/04 13:21:00;;;;;;;2.35;1.45;;;;;;;4.02;100.00;99323.84;6214181;28;20496;-78
2021/12/04 13:24:01;;;;;;;3.13;1.80;;;;;;;4.06;100.00;99312.38;6202062;28;20422;-79
2021/12/04 13:30:15;;;;;;;3.58;1.67;;;;;;;4.03;100.00;99286.53;6219457;28;20410;-79
2021/12/04 13:33:16;;;;;;;1.88;1.33;;;;;;;4.02;100.00;99285.69;6201876;28;20422;-79
2021/12/04 13:36:22;;;;;;;3.25;2.08;;;;;;;4.04;100.00;99276.06;6202428;28;20061;-76
2021/12/04 13:39:23;;;;;;;3.05;1.73;;;;;;;4.04;100.00;99270.00;6225702;28;20046;-78
2021/12/04 13:42:25;;;;;;;1.65;1.33;;;;;;;4.04;100.00;99263.06;6225852;28;20065;-77
2021/12/04 13:45:27;;;;;;;3.20;1.75;;;;;;;3.97;100.00;99250.47;6226568;28;20056;-77
2021/12/04 13:48:29;;;;;;;5.72;2.03;;;;;;;3.91;100.00;99248.19;6225991;28;20050;-79
2021/12/04 13:51:32;;;;;;;2.53;1.58;;;;;;;3.90;100.00;99236.06;6226150;28;20548;-79
2021/12/04 13:54:45;;;;;;;3.47;1.80;;;;;;;3.93;100.00;99235.94;6225950;28;20052;-78
2021/12/04 13:57:46;;;;;;;3.83;1.55;;;;;;;3.93;100.00;99239.38;6226865;28;20053;-78
2021/12/04 14:00:48;;;;;;;5.78;1.88;;;;;;;3.87;100.00;99250.09;6219881;28;20045;-77
2021/12/04 14:03:54;;;;;;;3.15;1.63;;;;;;;3.87;100.00;99254.44;6225789;28;20046;-78
2021/12/04 14:06:59;;;;;;;3.22;1.83;;;;;;;3.81;100.00;99255.56;6203884;28;20057;-78
2021/12/04 14:10:10;;;;;;;3.92;2.10;;;;;;;3.83;100.00;99261.53;6224459;28;20050;-78
2021/12/04 14:13:14;;;;;;;4.20;1.73;;;;;;;3.78;100.00;99260.94;6225118;28;20053;-79
2021/12/04 14:16:15;;;;;;;3.22;2.22;;;;;;;3.74;100.00;99252.44;6225782;28;20053;-78
2021/12/04 14:19:18;;;;;;;2.45;1.42;;;;;;;3.70;100.00;99237.91;6225899;28;20394;-78
2021/12/04 14:22:21;;;;;;;3.28;1.35;;;;;;;3.73;100.00;99240.38;6225728;28;20054;-78
2021/12/04 14:25:24;;;;;;;3.83;2.40;;;;;;;3.71;100.00;99250.00;6225667;28;20052;-78
2021/12/04 14:28:33;;;;;;;4.00;1.90;;;;;;;3.70;100.00;99248.31;6225502;28;20061;-78
2021/12/04 14:31:35;;;;;;;2.63;1.67;;;;;;;3.71;100.00;99249.16;6225435;28;20061;-78
2021/12/04 14:34:37;;;;;;;2.30;1.40;;;;;;;3.79;100.00;99260.00;6225490;28;20049;-78
2021/12/04 14:37:41;;;;;;;1.88;1.55;;;;;;;3.75;100.00;99259.31;6224539;28;20046;-78
2021/12/04 14:40:45;;;;;;;3.40;1.80;;;;;;;3.73;100.00;99245.56;6224880;28;20126;-78
2021/12/04 14:43:46;;;;;;;2.17;1.65;;;;;;;3.68;100.00;99249.28;6225622;28;20049;-79
2021/12/04 14:46:48;;;;;;;1.90;1.40;;;;;;;3.67;100.00;99250.22;6215909;28;20494;-78
2021/12/04 14:49:51;;;;;;;4.40;1.63;;;;;;;3.59;100.00;99242.81;6199840;28;20520;-78
2021/12/04 14:52:57;;;;;;;2.25;1.30;;;;;;;3.52;100.00;99250.06;6200797;28;20138;-79
2021/12/04 14:55:59;;;;;;;3.60;1.05;;;;;;;3.50;100.00;99262.28;6201039;28;20050;-77
2021/12/04 14:59:01;;;;;;;2.08;1.50;;;;;;;3.58;100.00;99263.66;6214188;28;20196;-79
2021/12/04 15:02:13;;;;;;;2.00;1.23;;;;;;;3.55;100.00;99262.06;6222962;28;20054;-80
2021/12/04 15:05:26;;;;;;;1.75;1.20;;;;;;;3.50;100.00;99259.69;6219520;28;20064;-80
2021/12/04 15:08:31;;;;;;;2.53;1.13;;;;;;;3.58;100.00;99261.06;6218877;28;20550;-79
2021/12/04 15:11:34;;;;;;;3.22;1.20;;;;;;;3.55;100.00;99269.84;6217792;28;20046;-78
2021/12/04 15:14:36;;;;;;;1.38;1.02;;;;;;;3.54;100.00;99266.41;6218157;28;20078;-77
2021/12/04 15:17:40;;;;;;;1.13;0.82;;;;;;;3.52;100.00;99268.22;6217918;28;20421;-79
2021/12/04 15:20:53;;;;;;;2.15;1.45;;;;;;;3.56;100.00;99274.13;6220034;28;20192;-79
2021/12/04 15:23:56;;;;;;;2.15;1.23;;;;;;;3.53;100.00;99269.91;6221004;28;20104;-78
2021/12/04 15:27:01;;;;;;;3.05;1.67;;;;;;;3.58;100.00;99266.25;6216132;28;20072;-78
2021/12/04 15:30:06;;;;;;;1.65;1.35;;;;;;;3.56;100.00;99261.13;6221872;28;20061;-79
2021/12/04 15:33:07;;;;;;;3.88;2.75;;;;;;;3.52;100.00;99250.06;6224431;28;20053;-78
2021/12/04 15:36:21;;;;;;;2.38;1.38;;;;;;;3.53;100.00;99246.53;6224242;28;20049;-78
2021/12/04 15:39:30;;;;;;;1.88;1.27;;;;;;;3.59;100.00;99242.81;6215141;28;20129;-79
2021/12/04 15:42:49;;;;;;;3.08;1.48;;;;;;;3.52;100.00;99241.41;6215007;28;20052;-78
2021/12/04 15:46:05;;;;;;;1.40;1.30;;;;;;;3.50;100.00;99245.88;6216831;28;20057;-78
2021/12/04 15:49:44;;;;;;;2.85;1.60;;;;;;;3.49;100.00;99245.00;6223938;28;20053;-78
2021/12/04 15:53:03;;;;;;;1.63;1.20;;;;;;;3.48;100.00;99235.53;6223842;28;20057;-78
2021/12/04 15:56:06;;;;;;;1.60;1.27;;;;;;;3.47;100.00;99240.81;6223867;28;20058;-78
2021/12/04 15:59:12;;;;;;;2.08;1.65;;;;;;;3.52;100.00;99237.06;6223413;28;20425;-79
2021/12/04 16:02:18;;;;;;;3.13;1.77;;;;;;;3.47;100.00;99254.63;6223380;28;20046;-78
2021/12/04 16:05:23;;;;;;;3.80;1.70;;;;;;;3.46;100.00;99265.94;6221796;28;20085;-79
2021/12/04 16:08:28;;;;;;;4.72;2.03;;;;;;;3.43;100.00;99257.44;6219346;28;20072;-78
2021/12/04 16:11:37;;;;;;;4.07;1.77;;;;;;;3.47;100.00;99253.78;6220333;28;20052;-76
2021/12/04 16:14:40;;;;;;;3.25;1.60;;;;;;;3.45;100.00;99240.91;6218271;28;20529;-79
2021/12/04 16:17:42;;;;;;;2.15;1.45;;;;;;;3.51;100.00;99234.56;6223055;28;20060;-79
2021/12/04 16:20:45;;;;;;;2.72;1.40;;;;;;;3.48;100.00;99238.13;6221909;28;20054;-79
2021/12/04 16:23:50;;;;;;;2.53;1.38;;;;;;;3.47;100.00;99225.22;6222918;28;20050;-79
2021/12/04 16:26:57;;;;;;;1.63;1.20;;;;;;;3.45;100.00;99222.72;6223530;28;20092;-79
2021/12/04 16:30:10;;;;;;;2.58;1.88;;;;;;;3.42;100.00;99216.81;6222987;28;20053;-79
2021/12/04 16:33:26;;;;;;;2.20;1.55;;;;;;;3.42;100.00;99217.66;6223367;28;20061;-79
2021/12/04 16:36:39;;;;;;;1.48;1.23;;;;;;;3.47;100.00;99218.28;6223081;28;20050;-80
2021/12/04 16:39:41;;;;;;;3.35;1.52;;;;;;;3.42;100.00;99228.03;6209364;28;20629;-80
2021/12/04 16:42:44;;;;;;;1.27;1.02;;;;;;;3.42;100.00;99225.44;6199751;28;20055;-80
2021/12/04 16:45:51;;;;;;;4.13;1.50;;;;;;;3.42;100.00;99229.81;6200085;28;20052;-84
2021/12/04 16:48:59;;;;;;;7.75;2.13;;;;;;;3.52;100.00;99226.69;6199183;28;20050;-79